This is the latest recevied weather packets stored in our database for station/object HS1AXC-1. If no packets are shown the sender has not sent any weather packets the latest 10 day(s).
| Time | Temp. | Humidity | Pressure | Rain* | Wind** | Luminosity | Snow |
|---|---|---|---|---|---|---|---|
| 1777520752 | 35.56° C | 64% | 1011 hPa | - | - | 0 W/m² | - |
| 1777520130 | 35.56° C | 63% | 1012 hPa | - | - | 0 W/m² | - |
| 1777519453 | 35.56° C | 65% | 1012 hPa | - | - | 0 W/m² | - |
| 1777518830 | 35.56° C | 64% | 1012 hPa | - | - | 0 W/m² | - |
| 1777518208 | 35° C | 65% | 1012 hPa | - | - | 0 W/m² | - |
| 1777517586 | 36.11° C | 67% | 1012 hPa | - | - | 2 W/m² | - |
| 1777516963 | 36.11° C | 68% | 1012 hPa | - | - | 1 W/m² | - |
| 1777516341 | 36.11° C | 70% | 1012 hPa | - | - | 1 W/m² | - |
| 1777515719 | 36.11° C | 70% | 1012 hPa | - | - | 0 W/m² | - |
| 1777515096 | 36.11° C | 71% | 1012 hPa | - | - | 1 W/m² | - |
| 1777514474 | 34.44° C | 76% | 1012 hPa | - | - | 1 W/m² | - |
| 1777513852 | 35.56° C | 73% | 1012 hPa | - | - | 1 W/m² | - |
| 1777513229 | 35.56° C | 76% | 1012 hPa | - | - | 1 W/m² | - |
| 1777512606 | 35° C | 78% | 1012 hPa | - | - | 1 W/m² | - |
| 1777511984 | 35° C | 80% | 1011 hPa | - | - | 1 W/m² | - |
| 1777511362 | 34.44° C | 81% | 1011 hPa | - | - | 1 W/m² | - |
| 1777510740 | 35° C | 81% | 1011 hPa | - | - | 1 W/m² | - |
| 1777507745 | 34.44° C | 85% | 1010 hPa | - | - | 0 W/m² | - |
| 1777507122 | 33.33° C | 88% | 1010 hPa | - | - | 1 W/m² | - |
| 1777506500 | 33.89° C | 89% | 1010 hPa | - | - | 0 W/m² | - |
| 1777505899 | 33.89° C | 89% | 1010 hPa | - | - | 0 W/m² | - |
| 1777504974 | 33.33° C | 90% | 1010 hPa | - | - | 0 W/m² | - |
| 1777504352 | 33.33° C | 91% | 1010 hPa | - | - | 0 W/m² | - |
| 1777503730 | 33.33° C | 91% | 1010 hPa | - | - | 0 W/m² | - |
| 1777503108 | 33.33° C | 90% | 1009 hPa | - | - | 0 W/m² | - |
* Rain since midnight (hover to see other rain measurements)
** Current wind speed in m/s (hover to see current wind gust speed)